sensor_id;sensor_type;location;lat;lon;timestamp;temperature;humidity
15777;DHT22;7989;51.198;6.676;2024-01-06T00:02:09;7.60;99.90
15777;DHT22;7989;51.198;6.676;2024-01-06T00:04:36;7.60;99.90
15777;DHT22;7989;51.198;6.676;2024-01-06T00:07:03;7.70;99.90
15777;DHT22;7989;51.198;6.676;2024-01-06T00:09:30;7.70;99.90
15777;DHT22;7989;51.198;6.676;2024-01-06T00:11:57;7.70;99.90
15777;DHT22;7989;51.198;6.676;2024-01-06T00:14:25;7.60;99.90
15777;DHT22;7989;51.198;6.676;2024-01-06T00:16:52;7.60;99.90
15777;DHT22;7989;51.198;6.676;2024-01-06T00:19:19;7.60;99.90
15777;DHT22;7989;51.198;6.676;2024-01-06T00:21:45;7.60;99.90
15777;DHT22;7989;51.198;6.676;2024-01-06T00:24:12;7.60;99.90
15777;DHT22;7989;51.198;6.676;2024-01-06T00:26:39;7.50;99.90
15777;DHT22;7989;51.198;6.676;2024-01-06T00:29:06;7.60;99.90
15777;DHT22;7989;51.198;6.676;2024-01-06T00:31:34;7.60;99.90
15777;DHT22;7989;51.198;6.676;2024-01-06T00:34:01;7.60;99.90
15777;DHT22;7989;51.198;6.676;2024-01-06T00:36:29;7.60;99.90
15777;DHT22;7989;51.198;6.676;2024-01-06T00:38:55;7.60;99.90
15777;DHT22;7989;51.198;6.676;2024-01-06T00:41:22;7.60;99.90
15777;DHT22;7989;51.198;6.676;2024-01-06T00:43:49;7.60;99.90
15777;DHT22;7989;51.198;6.676;2024-01-06T00:46:16;7.60;99.90
15777;DHT22;7989;51.198;6.676;2024-01-06T00:48:44;7.60;99.90
15777;DHT22;7989;51.198;6.676;2024-01-06T00:51:11;7.60;99.90
15777;DHT22;7989;51.198;6.676;2024-01-06T00:53:38;7.60;99.90
15777;DHT22;7989;51.198;6.676;2024-01-06T00:56:05;7.70;99.90
15777;DHT22;7989;51.198;6.676;2024-01-06T00:58:31;7.70;99.90
15777;DHT22;7989;51.198;6.676;2024-01-06T01:00:58;7.70;99.90
15777;DHT22;7989;51.198;6.676;2024-01-06T01:03:25;7.70;99.90
15777;DHT22;7989;51.198;6.676;2024-01-06T01:05:53;7.70;99.90
15777;DHT22;7989;51.198;6.676;2024-01-06T01:08:20;7.70;99.90
15777;DHT22;7989;51.198;6.676;2024-01-06T01:10:47;7.60;99.90
15777;DHT22;7989;51.198;6.676;2024-01-06T01:13:14;7.60;99.90
15777;DHT22;7989;51.198;6.676;2024-01-06T01:15:41;7.60;99.90
15777;DHT22;7989;51.198;6.676;2024-01-06T01:18:07;7.70;99.90
15777;DHT22;7989;51.198;6.676;2024-01-06T01:20:34;7.60;99.90
15777;DHT22;7989;51.198;6.676;2024-01-06T01:23:02;7.70;99.90
15777;DHT22;7989;51.198;6.676;2024-01-06T01:25:29;7.70;99.90
15777;DHT22;7989;51.198;6.676;2024-01-06T01:27:56;7.60;99.90
15777;DHT22;7989;51.198;6.676;2024-01-06T01:30:23;7.60;99.90
15777;DHT22;7989;51.198;6.676;2024-01-06T01:32:50;7.70;99.90
15777;DHT22;7989;51.198;6.676;2024-01-06T01:35:16;7.70;99.90
15777;DHT22;7989;51.198;6.676;2024-01-06T01:37:43;7.60;99.90
15777;DHT22;7989;51.198;6.676;2024-01-06T01:40:12;7.70;99.90
15777;DHT22;7989;51.198;6.676;2024-01-06T01:42:39;7.70;99.90
15777;DHT22;7989;51.198;6.676;2024-01-06T01:45:07;7.70;99.90
15777;DHT22;7989;51.198;6.676;2024-01-06T01:47:34;7.70;99.90
15777;DHT22;7989;51.198;6.676;2024-01-06T01:50:01;7.70;99.90
15777;DHT22;7989;51.198;6.676;2024-01-06T01:52:29;7.70;99.90
15777;DHT22;7989;51.198;6.676;2024-01-06T01:54:56;7.70;99.90
15777;DHT22;7989;51.198;6.676;2024-01-06T01:57:25;7.70;99.90
15777;DHT22;7989;51.198;6.676;2024-01-06T01:59:53;7.70;99.90
15777;DHT22;7989;51.198;6.676;2024-01-06T02:02:20;7.70;99.90
15777;DHT22;7989;51.198;6.676;2024-01-06T02:04:48;7.70;99.90
15777;DHT22;7989;51.198;6.676;2024-01-06T02:07:15;7.70;99.90
15777;DHT22;7989;51.198;6.676;2024-01-06T02:09:42;7.70;99.90
15777;DHT22;7989;51.198;6.676;2024-01-06T02:12:08;7.80;99.90
15777;DHT22;7989;51.198;6.676;2024-01-06T02:14:37;7.70;99.90
15777;DHT22;7989;51.198;6.676;2024-01-06T02:17:03;7.70;99.90
15777;DHT22;7989;51.198;6.676;2024-01-06T02:19:30;7.70;99.90
15777;DHT22;7989;51.198;6.676;2024-01-06T02:21:58;7.70;99.90
15777;DHT22;7989;51.198;6.676;2024-01-06T02:24:25;7.70;99.90
15777;DHT22;7989;51.198;6.676;2024-01-06T02:26:52;7.70;99.90
15777;DHT22;7989;51.198;6.676;2024-01-06T02:29:19;7.70;99.90
15777;DHT22;7989;51.198;6.676;2024-01-06T02:31:45;7.70;99.90
15777;DHT22;7989;51.198;6.676;2024-01-06T02:34:12;7.60;99.90
15777;DHT22;7989;51.198;6.676;2024-01-06T02:36:39;7.60;99.90
15777;DHT22;7989;51.198;6.676;2024-01-06T02:39:07;7.70;99.90
15777;DHT22;7989;51.198;6.676;2024-01-06T02:41:34;7.70;99.90
15777;DHT22;7989;51.198;6.676;2024-01-06T02:44:01;7.70;99.90
15777;DHT22;7989;51.198;6.676;2024-01-06T02:46:29;7.70;99.90
15777;DHT22;7989;51.198;6.676;2024-01-06T02:48:56;7.70;99.90
15777;DHT22;7989;51.198;6.676;2024-01-06T02:51:22;7.70;99.90
15777;DHT22;7989;51.198;6.676;2024-01-06T02:53:49;7.70;99.90
15777;DHT22;7989;51.198;6.676;2024-01-06T02:56:17;7.70;99.90
15777;DHT22;7989;51.198;6.676;2024-01-06T02:58:44;7.70;99.90
15777;DHT22;7989;51.198;6.676;2024-01-06T03:01:11;7.70;99.90
15777;DHT22;7989;51.198;6.676;2024-01-06T03:03:38;7.70;99.90
15777;DHT22;7989;51.198;6.676;2024-01-06T03:06:05;7.60;99.90
15777;DHT22;7989;51.198;6.676;2024-01-06T03:08:32;7.50;99.90
15777;DHT22;7989;51.198;6.676;2024-01-06T03:11:00;7.50;99.90
15777;DHT22;7989;51.198;6.676;2024-01-06T03:13:29;7.60;99.90
15777;DHT22;7989;51.198;6.676;2024-01-06T03:15:56;7.50;99.90
15777;DHT22;7989;51.198;6.676;2024-01-06T03:18:22;7.40;99.90
15777;DHT22;7989;51.198;6.676;2024-01-06T03:20:49;7.40;99.90
15777;DHT22;7989;51.198;6.676;2024-01-06T03:23:16;7.50;99.90
15777;DHT22;7989;51.198;6.676;2024-01-06T03:25:43;7.50;99.90
15777;DHT22;7989;51.198;6.676;2024-01-06T03:28:09;7.50;99.90
15777;DHT22;7989;51.198;6.676;2024-01-06T03:30:37;7.50;99.90
15777;DHT22;7989;51.198;6.676;2024-01-06T03:33:05;7.40;99.90
15777;DHT22;7989;51.198;6.676;2024-01-06T03:35:32;7.40;99.90
15777;DHT22;7989;51.198;6.676;2024-01-06T03:37:59;7.30;99.90
15777;DHT22;7989;51.198;6.676;2024-01-06T03:40:25;7.30;99.90
15777;DHT22;7989;51.198;6.676;2024-01-06T03:42:52;7.20;99.90
15777;DHT22;7989;51.198;6.676;2024-01-06T03:45:19;7.30;99.90
15777;DHT22;7989;51.198;6.676;2024-01-06T03:47:47;7.30;99.90
15777;DHT22;7989;51.198;6.676;2024-01-06T03:50:14;7.30;99.90
15777;DHT22;7989;51.198;6.676;2024-01-06T03:52:41;7.30;99.90
15777;DHT22;7989;51.198;6.676;2024-01-06T03:55:08;7.30;99.90
15777;DHT22;7989;51.198;6.676;2024-01-06T03:57:35;7.30;99.90
15777;DHT22;7989;51.198;6.676;2024-01-06T04:00:02;7.00;99.90
15777;DHT22;7989;51.198;6.676;2024-01-06T04:02:29;6.70;99.90
15777;DHT22;7989;51.198;6.676;2024-01-06T04:04:57;6.70;99.90
15777;DHT22;7989;51.198;6.676;2024-01-06T04:07:24;6.60;99.90
15777;DHT22;7989;51.198;6.676;2024-01-06T04:09:51;6.50;99.90
15777;DHT22;7989;51.198;6.676;2024-01-06T04:12:18;6.50;99.90
15777;DHT22;7989;51.198;6.676;2024-01-06T04:14:44;6.50;99.90
15777;DHT22;7989;51.198;6.676;2024-01-06T04:17:11;6.40;99.90
15777;DHT22;7989;51.198;6.676;2024-01-06T04:19:38;6.30;99.90
15777;DHT22;7989;51.198;6.676;2024-01-06T04:22:06;6.40;99.90
15777;DHT22;7989;51.198;6.676;2024-01-06T04:24:33;6.30;99.90
15777;DHT22;7989;51.198;6.676;2024-01-06T04:27:03;6.40;99.90
15777;DHT22;7989;51.198;6.676;2024-01-06T04:29:30;6.40;99.90
15777;DHT22;7989;51.198;6.676;2024-01-06T04:31:56;6.40;99.90
15777;DHT22;7989;51.198;6.676;2024-01-06T04:34:23;6.40;99.90
15777;DHT22;7989;51.198;6.676;2024-01-06T04:36:50;6.30;99.90
15777;DHT22;7989;51.198;6.676;2024-01-06T04:39:18;6.30;99.90
15777;DHT22;7989;51.198;6.676;2024-01-06T04:41:45;6.30;99.90
15777;DHT22;7989;51.198;6.676;2024-01-06T04:44:12;6.30;99.90
15777;DHT22;7989;51.198;6.676;2024-01-06T04:46:38;6.40;99.90
15777;DHT22;7989;51.198;6.676;2024-01-06T04:49:05;6.30;99.90
15777;DHT22;7989;51.198;6.676;2024-01-06T04:51:32;6.30;99.90
15777;DHT22;7989;51.198;6.676;2024-01-06T04:53:59;6.30;99.90
15777;DHT22;7989;51.198;6.676;2024-01-06T04:56:27;6.40;99.90
15777;DHT22;7989;51.198;6.676;2024-01-06T04:58:54;6.40;99.90
15777;DHT22;7989;51.198;6.676;2024-01-06T05:01:21;6.40;99.90
15777;DHT22;7989;51.198;6.676;2024-01-06T05:03:48;6.40;99.90
15777;DHT22;7989;51.198;6.676;2024-01-06T05:06:14;6.30;99.90
15777;DHT22;7989;51.198;6.676;2024-01-06T05:08:41;6.40;99.90
15777;DHT22;7989;51.198;6.676;2024-01-06T05:11:10;6.20;99.90
15777;DHT22;7989;51.198;6.676;2024-01-06T05:13:39;6.30;99.90
15777;DHT22;7989;51.198;6.676;2024-01-06T05:16:07;6.20;99.90
15777;DHT22;7989;51.198;6.676;2024-01-06T05:18:33;6.20;99.90
15777;DHT22;7989;51.198;6.676;2024-01-06T05:21:01;6.30;99.90
15777;DHT22;7989;51.198;6.676;2024-01-06T05:23:28;6.40;99.90
15777;DHT22;7989;51.198;6.676;2024-01-06T05:25:55;6.30;99.90
15777;DHT22;7989;51.198;6.676;2024-01-06T05:28:22;6.30;99.90
15777;DHT22;7989;51.198;6.676;2024-01-06T05:30:50;6.30;99.90
15777;DHT22;7989;51.198;6.676;2024-01-06T05:33:17;6.30;99.90
15777;DHT22;7989;51.198;6.676;2024-01-06T05:35:44;6.40;99.90
15777;DHT22;7989;51.198;6.676;2024-01-06T05:38:10;6.50;99.90
15777;DHT22;7989;51.198;6.676;2024-01-06T05:40:37;6.50;99.90
15777;DHT22;7989;51.198;6.676;2024-01-06T05:43:04;6.60;99.90
15777;DHT22;7989;51.198;6.676;2024-01-06T05:45:31;6.40;99.90
15777;DHT22;7989;51.198;6.676;2024-01-06T05:47:59;6.40;99.90
15777;DHT22;7989;51.198;6.676;2024-01-06T05:50:26;6.20;99.90
15777;DHT22;7989;51.198;6.676;2024-01-06T05:52:52;6.30;99.90
15777;DHT22;7989;51.198;6.676;2024-01-06T05:55:19;6.40;99.90
15777;DHT22;7989;51.198;6.676;2024-01-06T05:57:46;6.40;99.90
15777;DHT22;7989;51.198;6.676;2024-01-06T06:00:13;6.40;99.90
15777;DHT22;7989;51.198;6.676;2024-01-06T06:02:40;6.40;99.90
15777;DHT22;7989;51.198;6.676;2024-01-06T06:05:09;6.50;99.90
15777;DHT22;7989;51.198;6.676;2024-01-06T06:07:36;6.50;99.90
15777;DHT22;7989;51.198;6.676;2024-01-06T06:10:06;6.40;99.90
15777;DHT22;7989;51.198;6.676;2024-01-06T06:12:33;6.40;99.90
15777;DHT22;7989;51.198;6.676;2024-01-06T06:15:00;6.30;99.90
15777;DHT22;7989;51.198;6.676;2024-01-06T06:17:29;6.30;99.90
15777;DHT22;7989;51.198;6.676;2024-01-06T06:19:56;6.40;99.90
15777;DHT22;7989;51.198;6.676;2024-01-06T06:22:25;6.50;99.90
15777;DHT22;7989;51.198;6.676;2024-01-06T06:24:55;6.40;99.90
15777;DHT22;7989;51.198;6.676;2024-01-06T06:27:22;6.40;99.90
15777;DHT22;7989;51.198;6.676;2024-01-06T06:29:49;6.30;99.90
15777;DHT22;7989;51.198;6.676;2024-01-06T06:32:16;6.30;99.90
15777;DHT22;7989;51.198;6.676;2024-01-06T06:34:43;6.30;99.90
15777;DHT22;7989;51.198;6.676;2024-01-06T06:37:10;6.30;99.90
15777;DHT22;7989;51.198;6.676;2024-01-06T06:39:38;6.10;99.90
15777;DHT22;7989;51.198;6.676;2024-01-06T06:42:05;6.00;99.90
15777;DHT22;7989;51.198;6.676;2024-01-06T06:44:31;6.10;99.90
15777;DHT22;7989;51.198;6.676;2024-01-06T06:46:58;6.10;99.90
15777;DHT22;7989;51.198;6.676;2024-01-06T06:49:25;6.00;99.90
15777;DHT22;7989;51.198;6.676;2024-01-06T06:51:52;5.90;99.90
15777;DHT22;7989;51.198;6.676;2024-01-06T06:54:21;6.00;99.90
15777;DHT22;7989;51.198;6.676;2024-01-06T06:56:49;6.10;99.90
15777;DHT22;7989;51.198;6.676;2024-01-06T06:59:16;6.00;99.90
15777;DHT22;7989;51.198;6.676;2024-01-06T07:01:42;6.00;99.90
15777;DHT22;7989;51.198;6.676;2024-01-06T07:04:09;6.00;99.90
15777;DHT22;7989;51.198;6.676;2024-01-06T07:06:36;6.00;99.90
15777;DHT22;7989;51.198;6.676;2024-01-06T07:09:03;5.90;99.90
15777;DHT22;7989;51.198;6.676;2024-01-06T07:11:30;5.90;99.90
15777;DHT22;7989;51.198;6.676;2024-01-06T07:13:58;5.90;99.90
15777;DHT22;7989;51.198;6.676;2024-01-06T07:16:25;5.80;99.90
15777;DHT22;7989;51.198;6.676;2024-01-06T07:18:52;5.90;99.90
15777;DHT22;7989;51.198;6.676;2024-01-06T07:21:19;5.90;99.90
15777;DHT22;7989;51.198;6.676;2024-01-06T07:23:45;5.90;99.90
15777;DHT22;7989;51.198;6.676;2024-01-06T07:26:12;5.70;99.90
15777;DHT22;7989;51.198;6.676;2024-01-06T07:28:39;5.80;99.90
15777;DHT22;7989;51.198;6.676;2024-01-06T07:31:07;5.80;99.90
15777;DHT22;7989;51.198;6.676;2024-01-06T07:33:34;5.70;99.90
15777;DHT22;7989;51.198;6.676;2024-01-06T07:36:01;5.70;99.90
15777;DHT22;7989;51.198;6.676;2024-01-06T07:38:28;5.70;99.90
15777;DHT22;7989;51.198;6.676;2024-01-06T07:40:56;5.50;99.90
15777;DHT22;7989;51.198;6.676;2024-01-06T07:43:23;5.50;99.90
15777;DHT22;7989;51.198;6.676;2024-01-06T07:45:50;5.50;99.90
15777;DHT22;7989;51.198;6.676;2024-01-06T07:48:18;5.40;99.90
15777;DHT22;7989;51.198;6.676;2024-01-06T07:50:45;5.40;99.90
15777;DHT22;7989;51.198;6.676;2024-01-06T07:53:12;5.50;99.90
15777;DHT22;7989;51.198;6.676;2024-01-06T07:55:39;5.50;99.90
15777;DHT22;7989;51.198;6.676;2024-01-06T07:58:06;5.50;99.90
15777;DHT22;7989;51.198;6.676;2024-01-06T08:00:33;5.50;99.90
15777;DHT22;7989;51.198;6.676;2024-01-06T08:02:59;5.60;99.90
15777;DHT22;7989;51.198;6.676;2024-01-06T08:05:28;5.60;99.90
15777;DHT22;7989;51.198;6.676;2024-01-06T08:07:55;5.70;99.90
15777;DHT22;7989;51.198;6.676;2024-01-06T08:10:22;5.60;99.90
15777;DHT22;7989;51.198;6.676;2024-01-06T08:12:48;5.60;99.90
15777;DHT22;7989;51.198;6.676;2024-01-06T08:15:15;5.50;99.90
15777;DHT22;7989;51.198;6.676;2024-01-06T08:17:42;5.60;99.90
15777;DHT22;7989;51.198;6.676;2024-01-06T08:20:09;5.60;99.90
15777;DHT22;7989;51.198;6.676;2024-01-06T08:22:37;5.70;99.90
15777;DHT22;7989;51.198;6.676;2024-01-06T08:25:05;5.80;99.90
15777;DHT22;7989;51.198;6.676;2024-01-06T08:27:33;5.70;99.90
15777;DHT22;7989;51.198;6.676;2024-01-06T08:30:00;5.60;99.90
15777;DHT22;7989;51.198;6.676;2024-01-06T08:32:26;5.60;99.90
15777;DHT22;7989;51.198;6.676;2024-01-06T08:34:53;5.50;99.90
15777;DHT22;7989;51.198;6.676;2024-01-06T08:37:20;5.60;99.90
15777;DHT22;7989;51.198;6.676;2024-01-06T08:39:48;5.60;99.90
15777;DHT22;7989;51.198;6.676;2024-01-06T08:42:15;5.60;99.90
15777;DHT22;7989;51.198;6.676;2024-01-06T08:44:42;5.60;99.90
15777;DHT22;7989;51.198;6.676;2024-01-06T08:47:09;5.70;99.90
15777;DHT22;7989;51.198;6.676;2024-01-06T08:49:36;5.60;99.90
15777;DHT22;7989;51.198;6.676;2024-01-06T08:52:03;5.60;99.90
15777;DHT22;7989;51.198;6.676;2024-01-06T08:54:31;5.70;99.90
15777;DHT22;7989;51.198;6.676;2024-01-06T08:56:59;5.70;99.90
15777;DHT22;7989;51.198;6.676;2024-01-06T08:59:26;5.80;99.90
15777;DHT22;7989;51.198;6.676;2024-01-06T09:01:53;5.90;99.90
15777;DHT22;7989;51.198;6.676;2024-01-06T09:04:20;5.80;99.90
15777;DHT22;7989;51.198;6.676;2024-01-06T09:06:47;5.80;99.90
15777;DHT22;7989;51.198;6.676;2024-01-06T09:09:14;5.80;99.90
15777;DHT22;7989;51.198;6.676;2024-01-06T09:11:40;5.90;99.90
15777;DHT22;7989;51.198;6.676;2024-01-06T09:14:09;5.80;99.90
15777;DHT22;7989;51.198;6.676;2024-01-06T09:16:36;5.70;99.90
15777;DHT22;7989;51.198;6.676;2024-01-06T09:19:03;5.90;99.90
15777;DHT22;7989;51.198;6.676;2024-01-06T09:21:30;6.00;99.90
15777;DHT22;7989;51.198;6.676;2024-01-06T09:23:56;5.90;99.90
15777;DHT22;7989;51.198;6.676;2024-01-06T09:26:23;5.90;99.90
15777;DHT22;7989;51.198;6.676;2024-01-06T09:28:50;5.80;99.90
15777;DHT22;7989;51.198;6.676;2024-01-06T09:31:18;5.90;99.90
15777;DHT22;7989;51.198;6.676;2024-01-06T09:33:45;6.00;99.90
15777;DHT22;7989;51.198;6.676;2024-01-06T09:36:12;6.00;99.90
15777;DHT22;7989;51.198;6.676;2024-01-06T09:38:39;6.00;99.90
15777;DHT22;7989;51.198;6.676;2024-01-06T09:41:06;6.00;99.90
15777;DHT22;7989;51.198;6.676;2024-01-06T09:43:33;5.90;99.90
15777;DHT22;7989;51.198;6.676;2024-01-06T09:46:06;5.90;99.90
15777;DHT22;7989;51.198;6.676;2024-01-06T09:48:40;5.90;99.90
15777;DHT22;7989;51.198;6.676;2024-01-06T09:51:10;5.80;99.90
15777;DHT22;7989;51.198;6.676;2024-01-06T09:53:43;5.70;99.90
15777;DHT22;7989;51.198;6.676;2024-01-06T09:56:15;5.90;99.90
15777;DHT22;7989;51.198;6.676;2024-01-06T09:58:42;5.80;99.90
15777;DHT22;7989;51.198;6.676;2024-01-06T10:01:10;5.80;99.90
15777;DHT22;7989;51.198;6.676;2024-01-06T10:03:39;5.80;99.90
15777;DHT22;7989;51.198;6.676;2024-01-06T10:06:06;5.80;99.90
15777;DHT22;7989;51.198;6.676;2024-01-06T10:08:35;5.70;99.90
15777;DHT22;7989;51.198;6.676;2024-01-06T10:11:02;5.60;99.90
15777;DHT22;7989;51.198;6.676;2024-01-06T10:13:29;5.60;99.90
15777;DHT22;7989;51.198;6.676;2024-01-06T10:15:56;5.50;99.90
15777;DHT22;7989;51.198;6.676;2024-01-06T10:18:25;5.50;99.90
15777;DHT22;7989;51.198;6.676;2024-01-06T10:20:53;5.40;99.90
15777;DHT22;7989;51.198;6.676;2024-01-06T10:23:22;5.40;99.90
15777;DHT22;7989;51.198;6.676;2024-01-06T10:25:52;5.40;99.90
15777;DHT22;7989;51.198;6.676;2024-01-06T10:28:19;5.40;99.90
15777;DHT22;7989;51.198;6.676;2024-01-06T10:30:47;5.40;99.90
15777;DHT22;7989;51.198;6.676;2024-01-06T10:33:13;5.40;99.90
15777;DHT22;7989;51.198;6.676;2024-01-06T10:35:40;5.50;99.90
15777;DHT22;7989;51.198;6.676;2024-01-06T10:38:08;5.40;99.90
15777;DHT22;7989;51.198;6.676;2024-01-06T10:40:35;5.50;99.90
15777;DHT22;7989;51.198;6.676;2024-01-06T10:43:03;5.50;99.90
15777;DHT22;7989;51.198;6.676;2024-01-06T10:45:30;5.30;99.90
15777;DHT22;7989;51.198;6.676;2024-01-06T10:47:57;5.20;99.90
15777;DHT22;7989;51.198;6.676;2024-01-06T10:50:24;5.20;99.90
15777;DHT22;7989;51.198;6.676;2024-01-06T10:52:53;5.10;99.90
15777;DHT22;7989;51.198;6.676;2024-01-06T10:55:23;5.10;99.90
15777;DHT22;7989;51.198;6.676;2024-01-06T10:57:53;5.10;99.90
15777;DHT22;7989;51.198;6.676;2024-01-06T11:00:20;5.00;99.90
15777;DHT22;7989;51.198;6.676;2024-01-06T11:02:48;5.10;99.90
15777;DHT22;7989;51.198;6.676;2024-01-06T11:05:18;5.00;99.90
15777;DHT22;7989;51.198;6.676;2024-01-06T11:07:46;5.10;99.90
15777;DHT22;7989;51.198;6.676;2024-01-06T11:10:18;5.10;99.90
15777;DHT22;7989;51.198;6.676;2024-01-06T11:13:07;5.10;99.90
15777;DHT22;7989;51.198;6.676;2024-01-06T11:15:46;5.10;99.90
15777;DHT22;7989;51.198;6.676;2024-01-06T11:18:34;4.90;99.90
15777;DHT22;7989;51.198;6.676;2024-01-06T11:21:15;4.90;99.90
15777;DHT22;7989;51.198;6.676;2024-01-06T11:23:44;5.00;99.90
15777;DHT22;7989;51.198;6.676;2024-01-06T11:26:13;4.90;99.90
15777;DHT22;7989;51.198;6.676;2024-01-06T11:28:45;4.80;99.90
15777;DHT22;7989;51.198;6.676;2024-01-06T11:31:13;4.90;99.90
15777;DHT22;7989;51.198;6.676;2024-01-06T11:33:43;5.10;99.90
15777;DHT22;7989;51.198;6.676;2024-01-06T11:36:10;5.00;99.90
15777;DHT22;7989;51.198;6.676;2024-01-06T11:38:38;5.00;99.90
15777;DHT22;7989;51.198;6.676;2024-01-06T11:41:06;4.90;99.90
15777;DHT22;7989;51.198;6.676;2024-01-06T11:43:34;4.80;99.90
15777;DHT22;7989;51.198;6.676;2024-01-06T11:46:05;4.90;99.90
15777;DHT22;7989;51.198;6.676;2024-01-06T11:48:34;4.90;99.90
15777;DHT22;7989;51.198;6.676;2024-01-06T11:51:03;4.90;99.90
15777;DHT22;7989;51.198;6.676;2024-01-06T11:53:30;5.00;99.90
15777;DHT22;7989;51.198;6.676;2024-01-06T11:55:59;5.00;99.90
15777;DHT22;7989;51.198;6.676;2024-01-06T11:58:27;4.80;99.90
15777;DHT22;7989;51.198;6.676;2024-01-06T12:00:55;4.70;99.90
15777;DHT22;7989;51.198;6.676;2024-01-06T12:03:24;4.80;99.90
15777;DHT22;7989;51.198;6.676;2024-01-06T12:05:59;4.80;99.90
15777;DHT22;7989;51.198;6.676;2024-01-06T12:08:26;4.80;99.90
15777;DHT22;7989;51.198;6.676;2024-01-06T12:11:01;4.90;99.90
15777;DHT22;7989;51.198;6.676;2024-01-06T12:13:28;4.90;99.90
15777;DHT22;7989;51.198;6.676;2024-01-06T12:15:55;4.90;99.90
15777;DHT22;7989;51.198;6.676;2024-01-06T12:18:25;4.80;99.90
15777;DHT22;7989;51.198;6.676;2024-01-06T12:20:52;4.70;99.90
15777;DHT22;7989;51.198;6.676;2024-01-06T12:23:25;4.80;99.90
15777;DHT22;7989;51.198;6.676;2024-01-06T12:25:53;4.80;99.90
15777;DHT22;7989;51.198;6.676;2024-01-06T12:28:20;4.70;99.90
15777;DHT22;7989;51.198;6.676;2024-01-06T12:30:46;4.70;99.90
15777;DHT22;7989;51.198;6.676;2024-01-06T12:33:14;4.60;99.90
15777;DHT22;7989;51.198;6.676;2024-01-06T12:35:43;4.60;99.90
15777;DHT22;7989;51.198;6.676;2024-01-06T12:38:10;4.70;99.90
15777;DHT22;7989;51.198;6.676;2024-01-06T12:40:37;4.70;99.90
15777;DHT22;7989;51.198;6.676;2024-01-06T12:43:04;4.60;99.90
15777;DHT22;7989;51.198;6.676;2024-01-06T12:45:31;4.60;99.90
15777;DHT22;7989;51.198;6.676;2024-01-06T12:47:58;4.70;99.90
15777;DHT22;7989;51.198;6.676;2024-01-06T12:50:25;4.60;99.90
15777;DHT22;7989;51.198;6.676;2024-01-06T12:52:53;4.40;99.90
15777;DHT22;7989;51.198;6.676;2024-01-06T12:55:20;4.40;99.90
15777;DHT22;7989;51.198;6.676;2024-01-06T12:57:47;4.60;99.90
15777;DHT22;7989;51.198;6.676;2024-01-06T13:00:15;4.50;99.90
15777;DHT22;7989;51.198;6.676;2024-01-06T13:02:41;4.40;99.90
15777;DHT22;7989;51.198;6.676;2024-01-06T13:05:08;4.50;99.90
15777;DHT22;7989;51.198;6.676;2024-01-06T13:07:35;4.60;99.90
15777;DHT22;7989;51.198;6.676;2024-01-06T13:10:05;4.40;99.90
15777;DHT22;7989;51.198;6.676;2024-01-06T13:12:31;4.40;99.90
15777;DHT22;7989;51.198;6.676;2024-01-06T13:14:58;4.40;99.90
15777;DHT22;7989;51.198;6.676;2024-01-06T13:17:26;4.40;99.90
15777;DHT22;7989;51.198;6.676;2024-01-06T13:19:53;4.40;99.90
15777;DHT22;7989;51.198;6.676;2024-01-06T13:22:19;4.30;99.90
15777;DHT22;7989;51.198;6.676;2024-01-06T13:24:47;4.30;99.90
15777;DHT22;7989;51.198;6.676;2024-01-06T13:27:15;4.30;99.90
15777;DHT22;7989;51.198;6.676;2024-01-06T13:29:42;4.40;99.90
15777;DHT22;7989;51.198;6.676;2024-01-06T13:32:09;4.50;99.90
15777;DHT22;7989;51.198;6.676;2024-01-06T13:34:36;4.30;99.90
15777;DHT22;7989;51.198;6.676;2024-01-06T13:37:03;4.30;99.90
15777;DHT22;7989;51.198;6.676;2024-01-06T13:39:31;4.20;99.90
15777;DHT22;7989;51.198;6.676;2024-01-06T13:41:58;4.30;99.90
15777;DHT22;7989;51.198;6.676;2024-01-06T13:44:26;4.30;99.90
15777;DHT22;7989;51.198;6.676;2024-01-06T13:46:52;4.20;99.90
15777;DHT22;7989;51.198;6.676;2024-01-06T13:49:20;4.40;99.90
15777;DHT22;7989;51.198;6.676;2024-01-06T13:51:47;4.40;99.90
15777;DHT22;7989;51.198;6.676;2024-01-06T13:54:14;4.40;99.90
15777;DHT22;7989;51.198;6.676;2024-01-06T13:56:41;4.40;99.90
15777;DHT22;7989;51.198;6.676;2024-01-06T13:59:07;4.50;99.90
15777;DHT22;7989;51.198;6.676;2024-01-06T14:01:35;4.30;99.90
15777;DHT22;7989;51.198;6.676;2024-01-06T14:04:03;4.30;99.90
15777;DHT22;7989;51.198;6.676;2024-01-06T14:06:31;4.20;99.90
15777;DHT22;7989;51.198;6.676;2024-01-06T14:08:59;4.20;99.90
15777;DHT22;7989;51.198;6.676;2024-01-06T14:11:27;4.30;99.90
15777;DHT22;7989;51.198;6.676;2024-01-06T14:13:56;4.20;99.90
15777;DHT22;7989;51.198;6.676;2024-01-06T14:16:23;4.30;99.90
15777;DHT22;7989;51.198;6.676;2024-01-06T14:18:52;4.20;99.90
15777;DHT22;7989;51.198;6.676;2024-01-06T14:21:18;4.10;99.90
15777;DHT22;7989;51.198;6.676;2024-01-06T14:23:45;4.10;99.90
15777;DHT22;7989;51.198;6.676;2024-01-06T14:26:13;4.10;99.90
15777;DHT22;7989;51.198;6.676;2024-01-06T14:28:40;4.10;99.90
15777;DHT22;7989;51.198;6.676;2024-01-06T14:31:07;4.20;99.90
15777;DHT22;7989;51.198;6.676;2024-01-06T14:33:35;4.10;99.90
15777;DHT22;7989;51.198;6.676;2024-01-06T14:36:04;4.00;99.90
15777;DHT22;7989;51.198;6.676;2024-01-06T14:38:31;3.80;99.90
15777;DHT22;7989;51.198;6.676;2024-01-06T14:40:58;3.90;99.90
15777;DHT22;7989;51.198;6.676;2024-01-06T14:43:25;3.90;99.90
15777;DHT22;7989;51.198;6.676;2024-01-06T14:45:51;4.00;99.90
15777;DHT22;7989;51.198;6.676;2024-01-06T14:48:18;3.90;99.90
15777;DHT22;7989;51.198;6.676;2024-01-06T14:50:45;4.00;99.90
15777;DHT22;7989;51.198;6.676;2024-01-06T14:53:13;4.00;99.90
15777;DHT22;7989;51.198;6.676;2024-01-06T14:55:40;4.00;99.90
15777;DHT22;7989;51.198;6.676;2024-01-06T14:58:07;3.90;99.90
15777;DHT22;7989;51.198;6.676;2024-01-06T15:00:35;3.90;99.90
15777;DHT22;7989;51.198;6.676;2024-01-06T15:03:03;4.00;99.90
15777;DHT22;7989;51.198;6.676;2024-01-06T15:05:30;4.00;99.90
15777;DHT22;7989;51.198;6.676;2024-01-06T15:07:56;4.00;99.90
15777;DHT22;7989;51.198;6.676;2024-01-06T15:10:25;3.90;99.90
15777;DHT22;7989;51.198;6.676;2024-01-06T15:12:51;3.90;99.90
15777;DHT22;7989;51.198;6.676;2024-01-06T15:15:18;3.80;99.90
15777;DHT22;7989;51.198;6.676;2024-01-06T15:17:45;3.80;99.90
15777;DHT22;7989;51.198;6.676;2024-01-06T15:20:12;3.80;99.90
15777;DHT22;7989;51.198;6.676;2024-01-06T15:22:39;3.70;99.90
15777;DHT22;7989;51.198;6.676;2024-01-06T15:25:06;3.70;99.90
15777;DHT22;7989;51.198;6.676;2024-01-06T15:27:35;3.60;99.90
15777;DHT22;7989;51.198;6.676;2024-01-06T15:30:02;3.70;99.90
15777;DHT22;7989;51.198;6.676;2024-01-06T15:32:33;3.80;99.90
15777;DHT22;7989;51.198;6.676;2024-01-06T15:35:00;3.70;99.90
15777;DHT22;7989;51.198;6.676;2024-01-06T15:37:26;3.80;99.90
15777;DHT22;7989;51.198;6.676;2024-01-06T15:39:53;3.70;99.90
15777;DHT22;7989;51.198;6.676;2024-01-06T15:42:20;3.80;99.90
15777;DHT22;7989;51.198;6.676;2024-01-06T15:44:49;3.80;99.90
15777;DHT22;7989;51.198;6.676;2024-01-06T15:47:15;3.70;99.90
15777;DHT22;7989;51.198;6.676;2024-01-06T15:49:42;3.70;99.90
15777;DHT22;7989;51.198;6.676;2024-01-06T15:52:09;3.70;99.90
15777;DHT22;7989;51.198;6.676;2024-01-06T15:54:36;3.80;99.90
15777;DHT22;7989;51.198;6.676;2024-01-06T15:57:03;3.80;99.90
15777;DHT22;7989;51.198;6.676;2024-01-06T15:59:30;3.70;99.90
15777;DHT22;7989;51.198;6.676;2024-01-06T16:01:58;3.60;99.90
15777;DHT22;7989;51.198;6.676;2024-01-06T16:04:25;3.50;99.90